sensor_id;sensor_type;location;lat;lon;timestamp;pressure;altitude;pressure_sealevel;temperature;humidity
18985;BME280;9626;52.552;13.436;2022-12-07T00:02:25;100687.06;;;1.68;100.00
18985;BME280;9626;52.552;13.436;2022-12-07T00:04:51;100688.84;;;1.71;100.00
18985;BME280;9626;52.552;13.436;2022-12-07T00:07:17;100684.53;;;1.73;100.00
18985;BME280;9626;52.552;13.436;2022-12-07T00:09:43;100687.97;;;1.72;100.00
18985;BME280;9626;52.552;13.436;2022-12-07T00:12:09;100685.34;;;1.70;100.00
18985;BME280;9626;52.552;13.436;2022-12-07T00:14:35;100680.97;;;1.67;100.00
18985;BME280;9626;52.552;13.436;2022-12-07T00:17:01;100676.56;;;1.65;100.00
18985;BME280;9626;52.552;13.436;2022-12-07T00:19:27;100666.13;;;1.65;100.00
18985;BME280;9626;52.552;13.436;2022-12-07T00:21:53;100673.03;;;1.61;100.00
18985;BME280;9626;52.552;13.436;2022-12-07T00:24:19;100665.16;;;1.58;100.00
18985;BME280;9626;52.552;13.436;2022-12-07T00:26:45;100666.97;;;1.62;100.00
18985;BME280;9626;52.552;13.436;2022-12-07T00:29:19;100662.56;;;1.60;100.00
18985;BME280;9626;52.552;13.436;2022-12-07T00:31:46;100668.53;;;1.52;100.00
18985;BME280;9626;52.552;13.436;2022-12-07T00:34:17;100662.44;;;1.52;100.00
18985;BME280;9626;52.552;13.436;2022-12-07T00:36:43;100663.34;;;1.54;100.00
18985;BME280;9626;52.552;13.436;2022-12-07T00:39:10;100659.88;;;1.55;100.00
18985;BME280;9626;52.552;13.436;2022-12-07T00:41:36;100657.25;;;1.55;100.00
18985;BME280;9626;52.552;13.436;2022-12-07T00:44:02;100646.72;;;1.49;100.00
18985;BME280;9626;52.552;13.436;2022-12-07T00:46:29;100653.66;;;1.48;100.00
18985;BME280;9626;52.552;13.436;2022-12-07T00:48:55;100651.03;;;1.47;100.00
18985;BME280;9626;52.552;13.436;2022-12-07T00:51:23;100653.78;;;1.55;100.00
18985;BME280;9626;52.552;13.436;2022-12-07T00:53:49;100652.06;;;1.57;100.00
18985;BME280;9626;52.552;13.436;2022-12-07T00:56:18;100645.13;;;1.57;100.00
18985;BME280;9626;52.552;13.436;2022-12-07T00:58:53;100647.66;;;1.52;100.00
18985;BME280;9626;52.552;13.436;2022-12-07T01:01:19;100648.34;;;1.42;100.00
18985;BME280;9626;52.552;13.436;2022-12-07T01:03:45;100639.63;;;1.42;100.00
18985;BME280;9626;52.552;13.436;2022-12-07T01:06:15;100643.91;;;1.37;100.00
18985;BME280;9626;52.552;13.436;2022-12-07T01:08:42;100632.56;;;1.34;100.00
18985;BME280;9626;52.552;13.436;2022-12-07T01:11:15;100638.53;;;1.27;100.00
18985;BME280;9626;52.552;13.436;2022-12-07T01:13:41;100637.63;;;1.27;100.00
18985;BME280;9626;52.552;13.436;2022-12-07T01:16:09;100629.00;;;1.29;100.00
18985;BME280;9626;52.552;13.436;2022-12-07T01:18:36;100624.53;;;1.22;100.00
18985;BME280;9626;52.552;13.436;2022-12-07T01:21:08;100619.34;;;1.25;100.00
18985;BME280;9626;52.552;13.436;2022-12-07T01:23:35;100615.88;;;1.25;100.00
18985;BME280;9626;52.552;13.436;2022-12-07T01:26:05;100617.66;;;1.27;100.00
18985;BME280;9626;52.552;13.436;2022-12-07T01:28:31;100623.75;;;1.28;100.00
18985;BME280;9626;52.552;13.436;2022-12-07T01:33:33;100620.28;;;1.27;100.00
18985;BME280;9626;52.552;13.436;2022-12-07T01:36:14;100615.06;;;1.27;100.00
18985;BME280;9626;52.552;13.436;2022-12-07T01:38:40;100614.25;;;1.31;100.00
18985;BME280;9626;52.552;13.436;2022-12-07T01:41:06;100609.06;;;1.34;100.00
18985;BME280;9626;52.552;13.436;2022-12-07T01:43:33;100606.31;;;1.27;100.00
18985;BME280;9626;52.552;13.436;2022-12-07T01:46:00;100613.31;;;1.28;100.00
18985;BME280;9626;52.552;13.436;2022-12-07T01:48:38;100609.75;;;1.23;100.00
18985;BME280;9626;52.552;13.436;2022-12-07T01:51:09;100602.78;;;1.20;100.00
18985;BME280;9626;52.552;13.436;2022-12-07T01:53:39;100601.75;;;1.12;100.00
18985;BME280;9626;52.552;13.436;2022-12-07T01:56:10;100590.44;;;1.11;100.00
18985;BME280;9626;52.552;13.436;2022-12-07T01:58:38;100587.91;;;1.16;100.00
18985;BME280;9626;52.552;13.436;2022-12-07T02:01:04;100590.59;;;1.21;100.00
18985;BME280;9626;52.552;13.436;2022-12-07T02:03:36;100579.28;;;1.20;100.00
18985;BME280;9626;52.552;13.436;2022-12-07T02:06:04;100587.13;;;1.22;100.00
18985;BME280;9626;52.552;13.436;2022-12-07T02:08:30;100580.16;;;1.21;100.00
18985;BME280;9626;52.552;13.436;2022-12-07T02:10:57;100587.19;;;1.25;100.00
18985;BME280;9626;52.552;13.436;2022-12-07T02:13:25;100578.50;;;1.26;100.00
18985;BME280;9626;52.552;13.436;2022-12-07T02:16:08;100581.13;;;1.27;100.00
18985;BME280;9626;52.552;13.436;2022-12-07T02:21:57;100581.13;;;1.27;100.00
18985;BME280;9626;52.552;13.436;2022-12-07T02:27:50;100572.34;;;1.22;100.00
18985;BME280;9626;52.552;13.436;2022-12-07T02:30:20;100573.06;;;1.12;100.00
18985;BME280;9626;52.552;13.436;2022-12-07T02:33:07;100572.19;;;1.13;100.00
18985;BME280;9626;52.552;13.436;2022-12-07T02:35:44;100561.72;;;1.10;100.00
18985;BME280;9626;52.552;13.436;2022-12-07T02:38:39;100557.28;;;1.06;100.00
18985;BME280;9626;52.552;13.436;2022-12-07T02:41:31;100548.59;;;1.05;100.00
18985;BME280;9626;52.552;13.436;2022-12-07T02:44:02;100559.91;;;1.06;100.00
18985;BME280;9626;52.552;13.436;2022-12-07T02:46:36;100546.94;;;1.10;100.00
18985;BME280;9626;52.552;13.436;2022-12-07T02:49:04;100547.72;;;1.05;100.00
18985;BME280;9626;52.552;13.436;2022-12-07T02:51:32;100544.13;;;0.99;100.00
18985;BME280;9626;52.552;13.436;2022-12-07T02:53:58;100536.28;;;0.98;100.00
18985;BME280;9626;52.552;13.436;2022-12-07T02:56:48;100545.88;;;0.99;100.00
18985;BME280;9626;52.552;13.436;2022-12-07T03:07:59;100528.38;;;0.90;100.00
18985;BME280;9626;52.552;13.436;2022-12-07T03:18:51;100503.19;;;0.94;100.00
18985;BME280;9626;52.552;13.436;2022-12-07T03:21:23;100501.50;;;0.94;100.00
18985;BME280;9626;52.552;13.436;2022-12-07T03:23:54;100506.69;;;0.94;100.00
18985;BME280;9626;52.552;13.436;2022-12-07T03:26:25;100504.03;;;0.91;100.00
18985;BME280;9626;52.552;13.436;2022-12-07T03:28:55;100504.97;;;0.96;100.00
18985;BME280;9626;52.552;13.436;2022-12-07T03:31:29;100490.19;;;0.95;100.00
18985;BME280;9626;52.552;13.436;2022-12-07T03:34:07;100484.09;;;0.95;100.00
18985;BME280;9626;52.552;13.436;2022-12-07T03:36:49;100471.13;;;0.99;100.00
18985;BME280;9626;52.552;13.436;2022-12-07T03:39:39;100476.28;;;0.96;100.00
18985;BME280;9626;52.552;13.436;2022-12-07T03:42:08;100464.09;;;0.94;100.00
18985;BME280;9626;52.552;13.436;2022-12-07T03:44:36;100459.00;;;1.01;100.00
18985;BME280;9626;52.552;13.436;2022-12-07T03:49:39;100452.97;;;1.06;100.00
18985;BME280;9626;52.552;13.436;2022-12-07T03:52:26;100442.59;;;1.09;100.00
18985;BME280;9626;52.552;13.436;2022-12-07T03:55:08;100439.06;;;1.05;100.00
18985;BME280;9626;52.552;13.436;2022-12-07T03:57:36;100439.06;;;1.05;100.00
18985;BME280;9626;52.552;13.436;2022-12-07T04:00:06;100435.69;;;1.12;100.00
18985;BME280;9626;52.552;13.436;2022-12-07T04:02:33;100433.22;;;1.20;100.00
18985;BME280;9626;52.552;13.436;2022-12-07T04:05:00;100432.28;;;1.16;100.00
18985;BME280;9626;52.552;13.436;2022-12-07T04:07:26;100432.13;;;1.06;100.00
18985;BME280;9626;52.552;13.436;2022-12-07T04:09:52;100429.47;;;1.03;100.00
18985;BME280;9626;52.552;13.436;2022-12-07T04:12:21;100437.19;;;0.96;100.00
18985;BME280;9626;52.552;13.436;2022-12-07T04:14:47;100421.56;;;0.98;100.00
18985;BME280;9626;52.552;13.436;2022-12-07T04:17:13;100428.50;;;0.97;100.00
18985;BME280;9626;52.552;13.436;2022-12-07T04:19:40;100425.84;;;0.93;100.00
18985;BME280;9626;52.552;13.436;2022-12-07T04:22:06;100424.75;;;0.80;100.00
18985;BME280;9626;52.552;13.436;2022-12-07T04:24:33;100425.75;;;0.88;100.00
18985;BME280;9626;52.552;13.436;2022-12-07T04:26:59;100421.47;;;0.90;100.00
18985;BME280;9626;52.552;13.436;2022-12-07T04:29:25;100412.72;;;0.87;100.00
18985;BME280;9626;52.552;13.436;2022-12-07T04:31:51;100414.44;;;0.86;100.00
18985;BME280;9626;52.552;13.436;2022-12-07T04:34:18;100409.19;;;0.84;100.00
18985;BME280;9626;52.552;13.436;2022-12-07T04:36:45;100392.63;;;0.79;100.00
18985;BME280;9626;52.552;13.436;2022-12-07T04:39:35;100399.38;;;0.68;100.00
18985;BME280;9626;52.552;13.436;2022-12-07T04:42:01;100400.25;;;0.67;100.00
18985;BME280;9626;52.552;13.436;2022-12-07T04:44:27;100397.75;;;0.75;100.00
18985;BME280;9626;52.552;13.436;2022-12-07T04:46:54;100403.78;;;0.72;100.00
18985;BME280;9626;52.552;13.436;2022-12-07T04:49:21;100415.19;;;0.79;100.00
18985;BME280;9626;52.552;13.436;2022-12-07T04:51:47;100395.16;;;0.76;100.00
18985;BME280;9626;52.552;13.436;2022-12-07T04:54:14;100400.38;;;0.76;100.00
18985;BME280;9626;52.552;13.436;2022-12-07T04:56:41;100393.47;;;0.80;100.00
18985;BME280;9626;52.552;13.436;2022-12-07T04:59:07;100391.00;;;0.86;100.00
18985;BME280;9626;52.552;13.436;2022-12-07T05:01:33;100391.03;;;0.89;100.00
18985;BME280;9626;52.552;13.436;2022-12-07T05:03:59;100393.63;;;0.89;100.00
18985;BME280;9626;52.552;13.436;2022-12-07T05:06:25;100389.38;;;0.94;100.00
18985;BME280;9626;52.552;13.436;2022-12-07T05:08:52;100385.00;;;0.95;100.00
18985;BME280;9626;52.552;13.436;2022-12-07T05:11:18;100387.69;;;0.99;100.00
18985;BME280;9626;52.552;13.436;2022-12-07T05:14:07;100384.34;;;1.07;100.00
18985;BME280;9626;52.552;13.436;2022-12-07T05:16:33;100383.44;;;1.06;100.00
18985;BME280;9626;52.552;13.436;2022-12-07T05:18:59;100370.41;;;1.08;100.00
18985;BME280;9626;52.552;13.436;2022-12-07T05:21:25;100378.28;;;1.09;100.00
18985;BME280;9626;52.552;13.436;2022-12-07T05:23:51;100368.75;;;1.13;100.00
18985;BME280;9626;52.552;13.436;2022-12-07T05:26:18;100370.50;;;1.14;100.00
18985;BME280;9626;52.552;13.436;2022-12-07T05:28:44;100375.81;;;1.20;100.00
18985;BME280;9626;52.552;13.436;2022-12-07T05:31:10;100378.50;;;1.28;100.00
18985;BME280;9626;52.552;13.436;2022-12-07T05:33:36;100367.19;;;1.24;100.00
18985;BME280;9626;52.552;13.436;2022-12-07T05:36:02;100369.84;;;1.29;100.00
18985;BME280;9626;52.552;13.436;2022-12-07T05:38:31;100360.38;;;1.35;100.00
18985;BME280;9626;52.552;13.436;2022-12-07T05:41:02;100364.78;;;1.43;100.00
18985;BME280;9626;52.552;13.436;2022-12-07T05:43:33;100361.34;;;1.44;100.00
18985;BME280;9626;52.552;13.436;2022-12-07T05:45:59;100361.34;;;1.44;100.00
18985;BME280;9626;52.552;13.436;2022-12-07T05:48:26;100352.69;;;1.49;100.00
18985;BME280;9626;52.552;13.436;2022-12-07T05:50:52;100344.03;;;1.50;100.00
18985;BME280;9626;52.552;13.436;2022-12-07T05:53:18;100349.28;;;1.54;100.00
18985;BME280;9626;52.552;13.436;2022-12-07T05:55:45;100347.50;;;1.52;100.00
18985;BME280;9626;52.552;13.436;2022-12-07T05:58:10;100341.50;;;1.58;100.00
18985;BME280;9626;52.552;13.436;2022-12-07T06:00:56;100343.22;;;1.56;100.00
18985;BME280;9626;52.552;13.436;2022-12-07T06:03:22;100334.59;;;1.63;100.00
18985;BME280;9626;52.552;13.436;2022-12-07T06:05:48;100334.59;;;1.63;100.00
18985;BME280;9626;52.552;13.436;2022-12-07T06:08:14;100323.31;;;1.69;100.00
18985;BME280;9626;52.552;13.436;2022-12-07T06:10:41;100323.38;;;1.72;100.00
18985;BME280;9626;52.552;13.436;2022-12-07T06:13:08;100323.41;;;1.74;100.00
18985;BME280;9626;52.552;13.436;2022-12-07T06:15:58;100317.38;;;1.81;100.00
18985;BME280;9626;52.552;13.436;2022-12-07T06:18:24;100311.22;;;1.76;100.00
18985;BME280;9626;52.552;13.436;2022-12-07T06:20:50;100312.09;;;1.75;100.00
18985;BME280;9626;52.552;13.436;2022-12-07T06:23:16;100310.38;;;1.77;100.00
18985;BME280;9626;52.552;13.436;2022-12-07T06:25:45;100306.91;;;1.76;100.00
18985;BME280;9626;52.552;13.436;2022-12-07T06:28:11;100308.59;;;1.73;100.00
18985;BME280;9626;52.552;13.436;2022-12-07T06:30:37;100319.88;;;1.70;100.00
18985;BME280;9626;52.552;13.436;2022-12-07T06:33:03;100310.25;;;1.67;100.00
18985;BME280;9626;52.552;13.436;2022-12-07T06:35:29;100317.22;;;1.65;100.00
18985;BME280;9626;52.552;13.436;2022-12-07T06:37:55;100312.00;;;1.65;100.00
18985;BME280;9626;52.552;13.436;2022-12-07T06:40:21;100315.47;;;1.64;100.00
18985;BME280;9626;52.552;13.436;2022-12-07T06:42:47;100314.72;;;1.76;100.00
18985;BME280;9626;52.552;13.436;2022-12-07T06:45:13;100310.44;;;1.83;100.00
18985;BME280;9626;52.552;13.436;2022-12-07T06:47:39;100308.69;;;1.82;100.00
18985;BME280;9626;52.552;13.436;2022-12-07T06:50:05;100317.34;;;1.79;100.00
18985;BME280;9626;52.552;13.436;2022-12-07T06:52:33;100314.72;;;1.76;100.00
18985;BME280;9626;52.552;13.436;2022-12-07T06:54:59;100312.16;;;1.84;100.00
18985;BME280;9626;52.552;13.436;2022-12-07T06:57:26;100306.09;;;1.86;100.00
18985;BME280;9626;52.552;13.436;2022-12-07T06:59:52;100304.38;;;1.85;100.00
18985;BME280;9626;52.552;13.436;2022-12-07T07:02:18;100307.00;;;1.89;100.00
18985;BME280;9626;52.552;13.436;2022-12-07T07:04:44;100302.66;;;1.92;100.00
18985;BME280;9626;52.552;13.436;2022-12-07T07:07:10;100302.66;;;1.92;100.00
18985;BME280;9626;52.552;13.436;2022-12-07T07:09:36;100300.09;;;1.94;100.00
18985;BME280;9626;52.552;13.436;2022-12-07T07:12:02;100299.28;;;1.98;100.00
18985;BME280;9626;52.552;13.436;2022-12-07T07:14:28;100315.81;;;2.01;100.00
18985;BME280;9626;52.552;13.436;2022-12-07T07:16:54;100307.13;;;2.02;100.00
18985;BME280;9626;52.552;13.436;2022-12-07T07:19:20;100308.91;;;2.07;100.00
18985;BME280;9626;52.552;13.436;2022-12-07T07:21:46;100298.47;;;2.10;100.00
18985;BME280;9626;52.552;13.436;2022-12-07T07:24:12;100309.81;;;2.10;100.00
18985;BME280;9626;52.552;13.436;2022-12-07T07:26:38;100304.63;;;2.15;100.00
18985;BME280;9626;52.552;13.436;2022-12-07T07:29:04;100302.94;;;2.18;100.00
18985;BME280;9626;52.552;13.436;2022-12-07T07:31:30;100304.66;;;2.18;100.00
18985;BME280;9626;52.552;13.436;2022-12-07T07:33:56;100297.72;;;2.18;100.00
18985;BME280;9626;52.552;13.436;2022-12-07T07:36:22;100302.94;;;2.18;100.00
18985;BME280;9626;52.552;13.436;2022-12-07T07:38:48;100302.09;;;2.21;100.00
18985;BME280;9626;52.552;13.436;2022-12-07T07:41:14;100295.09;;;2.22;100.00
18985;BME280;9626;52.552;13.436;2022-12-07T07:43:40;100309.97;;;2.29;100.00
18985;BME280;9626;52.552;13.436;2022-12-07T07:46:06;100298.59;;;2.22;100.00
18985;BME280;9626;52.552;13.436;2022-12-07T07:48:32;100294.28;;;2.27;100.00
18985;BME280;9626;52.552;13.436;2022-12-07T07:50:58;100303.00;;;2.28;100.00
18985;BME280;9626;52.552;13.436;2022-12-07T07:53:24;100303.03;;;2.31;100.00
18985;BME280;9626;52.552;13.436;2022-12-07T07:55:54;100303.91;;;2.31;100.00
18985;BME280;9626;52.552;13.436;2022-12-07T07:58:20;100302.19;;;2.33;100.00
18985;BME280;9626;52.552;13.436;2022-12-07T08:00:46;100310.91;;;2.39;100.00
18985;BME280;9626;52.552;13.436;2022-12-07T08:03:12;100303.91;;;2.31;100.00
18985;BME280;9626;52.552;13.436;2022-12-07T08:05:38;100314.41;;;2.38;100.00
18985;BME280;9626;52.552;13.436;2022-12-07T08:08:04;100309.19;;;2.36;100.00
18985;BME280;9626;52.552;13.436;2022-12-07T08:10:30;100311.78;;;2.36;100.00
18985;BME280;9626;52.552;13.436;2022-12-07T08:12:58;100311.72;;;2.31;100.00
18985;BME280;9626;52.552;13.436;2022-12-07T08:15:38;100316.19;;;2.42;100.00
18985;BME280;9626;52.552;13.436;2022-12-07T08:18:04;100316.19;;;2.42;100.00
18985;BME280;9626;52.552;13.436;2022-12-07T08:20:31;100306.59;;;2.41;100.00
18985;BME280;9626;52.552;13.436;2022-12-07T08:22:58;100303.06;;;2.37;100.00
18985;BME280;9626;52.552;13.436;2022-12-07T08:25:25;100311.81;;;2.42;100.00
18985;BME280;9626;52.552;13.436;2022-12-07T08:27:51;100317.94;;;2.43;100.00
18985;BME280;9626;52.552;13.436;2022-12-07T08:30:18;100317.06;;;2.44;100.00
18985;BME280;9626;52.552;13.436;2022-12-07T08:32:44;100323.19;;;2.46;100.00
18985;BME280;9626;52.552;13.436;2022-12-07T08:35:11;100315.34;;;2.44;100.00
18985;BME280;9626;52.552;13.436;2022-12-07T08:37:37;100318.81;;;2.45;100.00
18985;BME280;9626;52.552;13.436;2022-12-07T08:40:06;100324.94;;;2.47;100.00
18985;BME280;9626;52.552;13.436;2022-12-07T08:42:33;100323.19;;;2.46;100.00
18985;BME280;9626;52.552;13.436;2022-12-07T08:45:07;100316.19;;;2.45;100.00
18985;BME280;9626;52.552;13.436;2022-12-07T08:47:35;100323.16;;;2.43;100.00
18985;BME280;9626;52.552;13.436;2022-12-07T08:50:04;100331.00;;;2.44;100.00
18985;BME280;9626;52.552;13.436;2022-12-07T08:52:33;100331.88;;;2.45;100.00
18985;BME280;9626;52.552;13.436;2022-12-07T08:55:00;100323.19;;;2.46;100.00
18985;BME280;9626;52.552;13.436;2022-12-07T08:57:27;100329.25;;;2.43;100.00
18985;BME280;9626;52.552;13.436;2022-12-07T08:59:54;100329.28;;;2.46;100.00
18985;BME280;9626;52.552;13.436;2022-12-07T09:02:21;100325.75;;;2.41;100.00
18985;BME280;9626;52.552;13.436;2022-12-07T09:04:47;100326.66;;;2.46;100.00
18985;BME280;9626;52.552;13.436;2022-12-07T09:07:13;100328.41;;;2.46;100.00
18985;BME280;9626;52.552;13.436;2022-12-07T09:09:39;100333.66;;;2.49;100.00
18985;BME280;9626;52.552;13.436;2022-12-07T09:12:05;100336.34;;;2.60;100.00
18985;BME280;9626;52.552;13.436;2022-12-07T09:14:30;100338.97;;;2.64;100.00
18985;BME280;9626;52.552;13.436;2022-12-07T09:17:08;100339.88;;;2.68;100.00
18985;BME280;9626;52.552;13.436;2022-12-07T09:19:34;100341.59;;;2.64;100.00
18985;BME280;9626;52.552;13.436;2022-12-07T09:22:00;100339.81;;;2.56;100.00
18985;BME280;9626;52.552;13.436;2022-12-07T09:24:26;100346.75;;;2.53;100.00
18985;BME280;9626;52.552;13.436;2022-12-07T09:26:52;100348.47;;;2.47;100.00
18985;BME280;9626;52.552;13.436;2022-12-07T09:29:18;100354.53;;;2.46;100.00
18985;BME280;9626;52.552;13.436;2022-12-07T09:31:44;100346.69;;;2.44;100.00
18985;BME280;9626;52.552;13.436;2022-12-07T09:34:10;100346.63;;;2.38;100.00
18985;BME280;9626;52.552;13.436;2022-12-07T09:36:36;100353.59;;;2.36;100.00
18985;BME280;9626;52.552;13.436;2022-12-07T09:39:03;100357.91;;;2.32;100.00
18985;BME280;9626;52.552;13.436;2022-12-07T09:41:31;100364.00;;;2.31;100.00
18985;BME280;9626;52.552;13.436;2022-12-07T09:44:24;100362.22;;;2.29;100.00
18985;BME280;9626;52.552;13.436;2022-12-07T09:46:51;100363.13;;;2.28;100.00
18985;BME280;9626;52.552;13.436;2022-12-07T09:49:23;100368.34;;;2.28;100.00
18985;BME280;9626;52.552;13.436;2022-12-07T09:52:25;100368.28;;;2.26;100.00
18985;BME280;9626;52.552;13.436;2022-12-07T09:54:49;100360.44;;;2.23;100.00
18985;BME280;9626;52.552;13.436;2022-12-07T09:57:16;100369.19;;;2.27;100.00
18985;BME280;9626;52.552;13.436;2022-12-07T09:59:42;100369.19;;;2.27;100.00
18985;BME280;9626;52.552;13.436;2022-12-07T10:05:05;100366.50;;;2.19;100.00
18985;BME280;9626;52.552;13.436;2022-12-07T10:07:31;100365.63;;;2.20;100.00
18985;BME280;9626;52.552;13.436;2022-12-07T10:09:57;100375.28;;;2.27;100.00
18985;BME280;9626;52.552;13.436;2022-12-07T10:12:26;100376.19;;;2.28;100.00
18985;BME280;9626;52.552;13.436;2022-12-07T10:15:01;100371.81;;;2.28;100.00
18985;BME280;9626;52.552;13.436;2022-12-07T10:17:32;100371.84;;;2.34;100.00
18985;BME280;9626;52.552;13.436;2022-12-07T10:22:54;100382.28;;;2.31;100.00
18985;BME280;9626;52.552;13.436;2022-12-07T10:25:22;100372.69;;;2.29;100.00
18985;BME280;9626;52.552;13.436;2022-12-07T10:27:59;100371.94;;;2.44;100.00
18985;BME280;9626;52.552;13.436;2022-12-07T10:30:26;100366.25;;;2.97;100.00
18985;BME280;9626;52.552;13.436;2022-12-07T10:32:52;100360.31;;;3.26;100.00
18985;BME280;9626;52.552;13.436;2022-12-07T10:35:30;100362.25;;;3.83;100.00
18985;BME280;9626;52.552;13.436;2022-12-07T10:37:59;100363.16;;;3.97;100.00
18985;BME280;9626;52.552;13.436;2022-12-07T10:40:27;100377.13;;;3.92;100.00
18985;BME280;9626;52.552;13.436;2022-12-07T10:43:17;100368.44;;;4.05;100.00
18985;BME280;9626;52.552;13.436;2022-12-07T10:54:17;100362.03;;;3.22;100.00
18985;BME280;9626;52.552;13.436;2022-12-07T10:59:38;100358.44;;;3.03;100.00
18985;BME280;9626;52.552;13.436;2022-12-07T11:10:28;100361.75;;;2.78;100.00
18985;BME280;9626;52.552;13.436;2022-12-07T11:19:06;100362.59;;;2.74;100.00
18985;BME280;9626;52.552;13.436;2022-12-07T11:21:48;100359.88;;;2.61;100.00
18985;BME280;9626;52.552;13.436;2022-12-07T11:29:49;100349.72;;;3.01;100.00
18985;BME280;9626;52.552;13.436;2022-12-07T11:32:55;100342.72;;;2.97;100.00
18985;BME280;9626;52.552;13.436;2022-12-07T11:38:18;100334.94;;;3.08;100.00
18985;BME280;9626;52.552;13.436;2022-12-07T11:40:54;100335.78;;;3.09;100.00
18985;BME280;9626;52.552;13.436;2022-12-07T11:43:31;100332.31;;;3.11;100.00
18985;BME280;9626;52.552;13.436;2022-12-07T11:46:08;100339.25;;;3.04;100.00
18985;BME280;9626;52.552;13.436;2022-12-07T11:48:49;100340.09;;;2.97;100.00
18985;BME280;9626;52.552;13.436;2022-12-07T11:51:20;100335.72;;;2.93;100.00
18985;BME280;9626;52.552;13.436;2022-12-07T11:54:00;100333.06;;;2.92;100.00
18985;BME280;9626;52.552;13.436;2022-12-07T11:56:30;100330.50;;;2.96;100.00
18985;BME280;9626;52.552;13.436;2022-12-07T12:01:42;100330.47;;;2.93;100.00
18985;BME280;9626;52.552;13.436;2022-12-07T12:06:39;100337.50;;;3.03;100.00
18985;BME280;9626;52.552;13.436;2022-12-07T12:09:17;100324.47;;;3.13;100.00
18985;BME280;9626;52.552;13.436;2022-12-07T12:20:45;100314.00;;;3.10;100.00
18985;BME280;9626;52.552;13.436;2022-12-07T12:23:22;100308.72;;;3.07;100.00
18985;BME280;9626;52.552;13.436;2022-12-07T12:25:56;100309.63;;;3.07;100.00
18985;BME280;9626;52.552;13.436;2022-12-07T12:28:30;100304.41;;;3.12;100.00
18985;BME280;9626;52.552;13.436;2022-12-07T12:31:07;100306.97;;;3.04;100.00
18985;BME280;9626;52.552;13.436;2022-12-07T12:33:35;100312.22;;;3.06;100.00
18985;BME280;9626;52.552;13.436;2022-12-07T12:46:50;100308.88;;;3.31;100.00
18985;BME280;9626;52.552;13.436;2022-12-07T12:59:39;100300.06;;;3.17;100.00
18985;BME280;9626;52.552;13.436;2022-12-07T13:02:22;100300.13;;;3.25;100.00
18985;BME280;9626;52.552;13.436;2022-12-07T13:13:25;100299.22;;;3.21;100.00
18985;BME280;9626;52.552;13.436;2022-12-07T13:26:22;100291.38;;;3.24;100.00
18985;BME280;9626;52.552;13.436;2022-12-07T13:31:52;100305.34;;;3.32;100.00
18985;BME280;9626;52.552;13.436;2022-12-07T13:34:39;100290.50;;;3.28;100.00
18985;BME280;9626;52.552;13.436;2022-12-07T13:39:49;100295.78;;;3.37;100.00
18985;BME280;9626;52.552;13.436;2022-12-07T13:42:26;100290.56;;;3.34;100.00
18985;BME280;9626;52.552;13.436;2022-12-07T13:44:53;100294.03;;;3.36;100.00
18985;BME280;9626;52.552;13.436;2022-12-07T13:47:41;100292.28;;;3.32;100.00
18985;BME280;9626;52.552;13.436;2022-12-07T13:50:25;100290.53;;;3.31;100.00
18985;BME280;9626;52.552;13.436;2022-12-07T13:52:55;100298.41;;;3.33;100.00
18985;BME280;9626;52.552;13.436;2022-12-07T13:55:22;100297.50;;;3.26;100.00
18985;BME280;9626;52.552;13.436;2022-12-07T13:57:51;100295.75;;;3.28;100.00
18985;BME280;9626;52.552;13.436;2022-12-07T14:00:22;100292.28;;;3.32;100.00
18985;BME280;9626;52.552;13.436;2022-12-07T14:02:57;100306.25;;;3.36;100.00
18985;BME280;9626;52.552;13.436;2022-12-07T14:05:27;100299.25;;;3.30;100.00
18985;BME280;9626;52.552;13.436;2022-12-07T14:10:28;100307.09;;;3.33;100.00
18985;BME280;9626;52.552;13.436;2022-12-07T14:12:55;100303.63;;;3.31;100.00
18985;BME280;9626;52.552;13.436;2022-12-07T14:15:32;100303.63;;;3.31;100.00
18985;BME280;9626;52.552;13.436;2022-12-07T14:18:00;100297.50;;;3.29;100.00
18985;BME280;9626;52.552;13.436;2022-12-07T14:20:36;100298.38;;;3.28;100.00
18985;BME280;9626;52.552;13.436;2022-12-07T14:23:03;100295.78;;;3.31;100.00
18985;BME280;9626;52.552;13.436;2022-12-07T14:25:50;100302.69;;;3.23;100.00
18985;BME280;9626;52.552;13.436;2022-12-07T14:28:37;100299.22;;;3.19;100.00
18985;BME280;9626;52.552;13.436;2022-12-07T14:31:12;100290.50;;;3.22;100.00
18985;BME280;9626;52.552;13.436;2022-12-07T14:33:39;100292.22;;;3.18;100.00
18985;BME280;9626;52.552;13.436;2022-12-07T14:36:08;100287.00;;;3.18;100.00
18985;BME280;9626;52.552;13.436;2022-12-07T14:38:34;100276.53;;;3.17;100.00
18985;BME280;9626;52.552;13.436;2022-12-07T14:41:00;100272.13;;;3.11;100.00
18985;BME280;9626;52.552;13.436;2022-12-07T14:43:45;100273.00;;;3.12;100.00
18985;BME280;9626;52.552;13.436;2022-12-07T14:46:11;100271.28;;;3.12;100.00
18985;BME280;9626;52.552;13.436;2022-12-07T14:48:38;100275.63;;;3.13;100.00
18985;BME280;9626;52.552;13.436;2022-12-07T14:51:04;100273.00;;;3.06;100.00
18985;BME280;9626;52.552;13.436;2022-12-07T14:53:35;100272.09;;;3.00;100.00
18985;BME280;9626;52.552;13.436;2022-12-07T14:56:03;100274.66;;;2.96;100.00
18985;BME280;9626;52.552;13.436;2022-12-07T14:58:31;100265.94;;;2.92;100.00
18985;BME280;9626;52.552;13.436;2022-12-07T15:00:58;100273.78;;;2.89;100.00
18985;BME280;9626;52.552;13.436;2022-12-07T15:03:24;100283.38;;;2.92;100.00
18985;BME280;9626;52.552;13.436;2022-12-07T15:05:50;100276.41;;;2.89;100.00
18985;BME280;9626;52.552;13.436;2022-12-07T15:08:17;100274.66;;;2.88;100.00
18985;BME280;9626;52.552;13.436;2022-12-07T15:10:43;100284.25;;;2.89;100.00
18985;BME280;9626;52.552;13.436;2022-12-07T15:13:10;100278.13;;;2.85;100.00
18985;BME280;9626;52.552;13.436;2022-12-07T15:15:55;100274.59;;;2.79;100.00